sensor_id;sensor_type;location;lat;lon;timestamp;P1;durP1;ratioP1;P2;durP2;ratioP2
9234;SDS011;4652;42.716;23.218;2023-04-24T00:06:40;13.57;;;12.27;;
9234;SDS011;4652;42.716;23.218;2023-04-24T00:13:22;13.70;;;10.43;;
9234;SDS011;4652;42.716;23.218;2023-04-24T00:20:05;13.17;;;11.43;;
9234;SDS011;4652;42.716;23.218;2023-04-24T00:26:51;12.20;;;10.77;;
9234;SDS011;4652;42.716;23.218;2023-04-24T00:33:33;14.33;;;10.57;;
9234;SDS011;4652;42.716;23.218;2023-04-24T00:40:15;14.63;;;11.37;;
9234;SDS011;4652;42.716;23.218;2023-04-24T00:46:58;14.40;;;10.80;;
9234;SDS011;4652;42.716;23.218;2023-04-24T00:53:40;16.53;;;11.73;;
9234;SDS011;4652;42.716;23.218;2023-04-24T01:08:03;16.07;;;12.73;;
9234;SDS011;4652;42.716;23.218;2023-04-24T01:14:46;15.60;;;12.57;;
9234;SDS011;4652;42.716;23.218;2023-04-24T01:21:28;15.47;;;11.50;;
9234;SDS011;4652;42.716;23.218;2023-04-24T01:28:18;14.03;;;12.53;;
9234;SDS011;4652;42.716;23.218;2023-04-24T01:35:00;14.67;;;13.07;;
9234;SDS011;4652;42.716;23.218;2023-04-24T01:41:43;16.67;;;13.50;;
9234;SDS011;4652;42.716;23.218;2023-04-24T01:48:26;15.53;;;12.50;;
9234;SDS011;4652;42.716;23.218;2023-04-24T01:55:09;15.43;;;12.43;;
9234;SDS011;4652;42.716;23.218;2023-04-24T02:01:52;16.17;;;12.13;;
9234;SDS011;4652;42.716;23.218;2023-04-24T02:08:35;15.00;;;12.57;;
9234;SDS011;4652;42.716;23.218;2023-04-24T02:15:17;13.87;;;12.13;;
9234;SDS011;4652;42.716;23.218;2023-04-24T02:21:59;15.07;;;11.47;;
9234;SDS011;4652;42.716;23.218;2023-04-24T02:28:43;14.77;;;12.13;;
9234;SDS011;4652;42.716;23.218;2023-04-24T02:35:25;14.50;;;11.40;;
9234;SDS011;4652;42.716;23.218;2023-04-24T02:42:06;15.07;;;11.70;;
9234;SDS011;4652;42.716;23.218;2023-04-24T02:48:50;12.97;;;10.67;;
9234;SDS011;4652;42.716;23.218;2023-04-24T02:55:32;12.10;;;10.90;;
9234;SDS011;4652;42.716;23.218;2023-04-24T03:02:14;15.07;;;11.33;;
9234;SDS011;4652;42.716;23.218;2023-04-24T03:08:57;13.67;;;11.27;;
9234;SDS011;4652;42.716;23.218;2023-04-24T03:15:39;12.90;;;11.07;;
9234;SDS011;4652;42.716;23.218;2023-04-24T03:22:21;11.73;;;10.50;;
9234;SDS011;4652;42.716;23.218;2023-04-24T03:29:04;14.97;;;10.90;;
9234;SDS011;4652;42.716;23.218;2023-04-24T03:35:46;12.90;;;10.67;;
9234;SDS011;4652;42.716;23.218;2023-04-24T03:42:28;13.13;;;10.43;;
9234;SDS011;4652;42.716;23.218;2023-04-24T03:49:11;12.87;;;11.47;;
9234;SDS011;4652;42.716;23.218;2023-04-24T03:55:54;13.73;;;10.60;;
9234;SDS011;4652;42.716;23.218;2023-04-24T04:02:36;12.17;;;10.97;;
9234;SDS011;4652;42.716;23.218;2023-04-24T04:09:19;13.00;;;11.47;;
9234;SDS011;4652;42.716;23.218;2023-04-24T04:16:01;14.13;;;10.97;;
9234;SDS011;4652;42.716;23.218;2023-04-24T04:22:43;17.23;;;11.53;;
9234;SDS011;4652;42.716;23.218;2023-04-24T04:29:27;13.93;;;12.40;;
9234;SDS011;4652;42.716;23.218;2023-04-24T04:36:09;14.63;;;12.10;;
9234;SDS011;4652;42.716;23.218;2023-04-24T04:42:52;14.43;;;11.10;;
9234;SDS011;4652;42.716;23.218;2023-04-24T04:49:35;14.00;;;10.70;;
9234;SDS011;4652;42.716;23.218;2023-04-24T04:56:18;12.23;;;10.93;;
9234;SDS011;4652;42.716;23.218;2023-04-24T05:03:00;14.90;;;10.20;;
9234;SDS011;4652;42.716;23.218;2023-04-24T05:09:44;13.03;;;11.10;;
9234;SDS011;4652;42.716;23.218;2023-04-24T05:16:26;15.53;;;11.10;;
9234;SDS011;4652;42.716;23.218;2023-04-24T05:23:08;14.07;;;10.13;;
9234;SDS011;4652;42.716;23.218;2023-04-24T05:29:51;12.87;;;10.23;;
9234;SDS011;4652;42.716;23.218;2023-04-24T05:36:33;10.60;;;8.47;;
9234;SDS011;4652;42.716;23.218;2023-04-24T05:43:15;11.47;;;10.20;;
9234;SDS011;4652;42.716;23.218;2023-04-24T05:49:59;14.00;;;9.57;;
9234;SDS011;4652;42.716;23.218;2023-04-24T05:56:40;11.10;;;9.10;;
9234;SDS011;4652;42.716;23.218;2023-04-24T06:03:23;11.13;;;9.07;;
9234;SDS011;4652;42.716;23.218;2023-04-24T06:10:07;9.83;;;8.33;;
9234;SDS011;4652;42.716;23.218;2023-04-24T06:16:49;11.37;;;7.60;;
9234;SDS011;4652;42.716;23.218;2023-04-24T06:23:32;9.00;;;7.70;;
9234;SDS011;4652;42.716;23.218;2023-04-24T06:30:15;8.97;;;8.07;;
9234;SDS011;4652;42.716;23.218;2023-04-24T06:36:57;9.10;;;8.20;;
9234;SDS011;4652;42.716;23.218;2023-04-24T06:43:39;11.70;;;7.90;;
9234;SDS011;4652;42.716;23.218;2023-04-24T06:50:23;11.10;;;7.87;;
9234;SDS011;4652;42.716;23.218;2023-04-24T06:57:05;11.07;;;7.97;;
9234;SDS011;4652;42.716;23.218;2023-04-24T07:45:11;12.33;;;8.13;;
9234;SDS011;4652;42.716;23.218;2023-04-24T13:18:27;6.10;;;4.33;;
9234;SDS011;4652;42.716;23.218;2023-04-24T20:05:13;1.93;;;1.10;;
9234;SDS011;4652;42.716;23.218;2023-04-24T20:11:55;2.13;;;1.10;;
9234;SDS011;4652;42.716;23.218;2023-04-24T20:18:37;1.80;;;1.03;;
9234;SDS011;4652;42.716;23.218;2023-04-24T20:25:21;5.97;;;4.13;;
9234;SDS011;4652;42.716;23.218;2023-04-24T20:32:03;9.50;;;7.80;;
9234;SDS011;4652;42.716;23.218;2023-04-24T20:38:46;8.47;;;7.03;;
9234;SDS011;4652;42.716;23.218;2023-04-24T20:45:29;8.07;;;7.33;;
9234;SDS011;4652;42.716;23.218;2023-04-24T20:52:11;7.87;;;7.07;;
9234;SDS011;4652;42.716;23.218;2023-04-24T20:58:53;7.73;;;6.50;;
9234;SDS011;4652;42.716;23.218;2023-04-24T21:05:36;7.87;;;3.37;;
9234;SDS011;4652;42.716;23.218;2023-04-24T21:12:18;3.13;;;2.80;;
9234;SDS011;4652;42.716;23.218;2023-04-24T21:19:00;6.80;;;4.83;;
9234;SDS011;4652;42.716;23.218;2023-04-24T21:25:44;6.77;;;6.07;;
9234;SDS011;4652;42.716;23.218;2023-04-24T21:32:26;5.70;;;4.90;;
9234;SDS011;4652;42.716;23.218;2023-04-24T21:39:08;5.63;;;3.50;;
9234;SDS011;4652;42.716;23.218;2023-04-24T21:45:51;7.93;;;5.33;;
9234;SDS011;4652;42.716;23.218;2023-04-24T21:52:33;5.57;;;4.50;;
9234;SDS011;4652;42.716;23.218;2023-04-24T21:59:15;10.47;;;9.27;;
9234;SDS011;4652;42.716;23.218;2023-04-24T22:05:59;10.93;;;9.13;;
9234;SDS011;4652;42.716;23.218;2023-04-24T22:12:42;10.53;;;8.77;;
9234;SDS011;4652;42.716;23.218;2023-04-24T22:19:24;9.90;;;8.63;;
9234;SDS011;4652;42.716;23.218;2023-04-24T22:26:08;11.17;;;8.77;;
9234;SDS011;4652;42.716;23.218;2023-04-24T22:32:51;11.23;;;10.03;;
9234;SDS011;4652;42.716;23.218;2023-04-24T22:39:33;10.57;;;8.67;;
9234;SDS011;4652;42.716;23.218;2023-04-24T22:46:16;9.83;;;8.83;;
9234;SDS011;4652;42.716;23.218;2023-04-24T22:52:58;11.90;;;9.47;;
9234;SDS011;4652;42.716;23.218;2023-04-24T22:59:40;10.10;;;8.97;;
9234;SDS011;4652;42.716;23.218;2023-04-24T23:06:24;6.57;;;5.40;;
9234;SDS011;4652;42.716;23.218;2023-04-24T23:13:07;3.50;;;3.20;;
9234;SDS011;4652;42.716;23.218;2023-04-24T23:19:49;1.80;;;1.53;;
9234;SDS011;4652;42.716;23.218;2023-04-24T23:26:32;1.90;;;1.30;;
9234;SDS011;4652;42.716;23.218;2023-04-24T23:33:16;1.37;;;1.27;;
9234;SDS011;4652;42.716;23.218;2023-04-24T23:39:58;1.90;;;1.73;;
9234;SDS011;4652;42.716;23.218;2023-04-24T23:46:41;2.17;;;1.30;;
9234;SDS011;4652;42.716;23.218;2023-04-24T23:53:23;1.00;;;1.00;;
